createdAt,value
2023-04-08T00:02:01.695Z,10.00
2023-04-08T00:04:29.983Z,11.30
2023-04-08T00:06:58.101Z,10.50
2023-04-08T00:09:26.185Z,10.90
2023-04-08T00:11:54.386Z,11.40
2023-04-08T00:14:22.401Z,10.50
2023-04-08T00:16:50.548Z,10.20
2023-04-08T00:19:18.779Z,11.30
2023-04-08T00:21:47.796Z,10.80
2023-04-08T00:24:16.836Z,10.20
2023-04-08T00:26:44.897Z,10.10
2023-04-08T00:29:13.020Z,10.50
2023-04-08T00:31:41.137Z,9.80
2023-04-08T00:34:09.211Z,8.50
2023-04-08T00:36:37.348Z,9.30
2023-04-08T00:39:06.994Z,8.90
2023-04-08T00:41:36.326Z,9.50
2023-04-08T00:44:04.442Z,8.40
2023-04-08T00:46:36.940Z,8.00
2023-04-08T00:49:06.318Z,7.70
2023-04-08T00:51:37.718Z,7.70
2023-04-08T00:54:06.436Z,7.10
2023-04-08T00:56:35.081Z,6.70
2023-04-08T00:59:04.030Z,7.00
2023-04-08T01:02:10.633Z,7.00
2023-04-08T01:05:01.943Z,7.40
2023-04-08T01:07:38.352Z,7.20
2023-04-08T01:10:28.856Z,7.70
2023-04-08T01:12:59.726Z,7.60
2023-04-08T01:15:29.867Z,6.40
2023-04-08T01:17:59.778Z,6.80
2023-04-08T01:20:29.001Z,6.90
2023-04-08T01:23:25.313Z,7.60
2023-04-08T01:25:54.824Z,7.10
2023-04-08T01:28:27.321Z,6.70
2023-04-08T01:30:57.967Z,6.90
2023-04-08T01:33:28.229Z,7.00
2023-04-08T01:35:58.095Z,6.80
2023-04-08T01:38:27.406Z,6.60
2023-04-08T01:40:56.200Z,5.90
2023-04-08T01:43:25.608Z,6.40
2023-04-08T01:45:58.736Z,6.50
2023-04-08T01:48:28.080Z,6.30
2023-04-08T01:50:57.036Z,6.30
2023-04-08T01:53:25.475Z,6.40
2023-04-08T01:56:01.981Z,6.20
2023-04-08T01:58:34.700Z,6.60
2023-04-08T02:01:04.216Z,6.60
2023-04-08T02:03:34.215Z,6.40
2023-04-08T02:06:02.447Z,7.10
2023-04-08T02:08:30.649Z,6.40
2023-04-08T02:10:58.877Z,6.50
2023-04-08T02:13:28.580Z,6.10
2023-04-08T02:16:04.968Z,6.20
2023-04-08T02:18:35.719Z,5.50
2023-04-08T02:21:11.940Z,6.20
2023-04-08T02:23:42.691Z,6.10
2023-04-08T02:26:15.835Z,6.50
2023-04-08T02:28:44.930Z,6.30
2023-04-08T02:31:14.310Z,6.30
2023-04-08T02:33:43.866Z,6.20
2023-04-08T02:36:12.896Z,7.10
2023-04-08T02:38:40.959Z,7.30
2023-04-08T02:41:09.060Z,7.90
2023-04-08T02:43:37.189Z,8.00
2023-04-08T02:46:05.782Z,8.90
2023-04-08T02:48:33.882Z,8.50
2023-04-08T02:51:02.237Z,8.70
2023-04-08T02:53:30.599Z,9.00
2023-04-08T02:55:58.790Z,9.60
2023-04-08T02:58:27.007Z,10.00
2023-04-08T03:00:55.260Z,9.20
2023-04-08T03:03:30.493Z,9.60
2023-04-08T03:05:59.215Z,9.40
2023-04-08T03:08:27.343Z,9.90
2023-04-08T03:10:55.606Z,9.90
2023-04-08T03:13:24.708Z,10.30
2023-04-08T03:15:52.869Z,10.40
2023-04-08T03:18:21.583Z,9.50
2023-04-08T03:20:49.685Z,9.60
2023-04-08T03:23:19.908Z,9.30
2023-04-08T03:25:47.979Z,9.60
2023-04-08T03:28:16.037Z,10.20
2023-04-08T03:30:44.325Z,10.00
2023-04-08T03:33:14.610Z,10.50
2023-04-08T03:35:43.190Z,10.80
2023-04-08T03:38:11.612Z,10.70
2023-04-08T03:40:40.314Z,10.60
2023-04-08T03:43:09.200Z,10.10
2023-04-08T03:45:37.901Z,9.90
2023-04-08T03:48:06.816Z,10.40
2023-04-08T03:50:35.130Z,10.90
2023-04-08T03:53:03.258Z,10.40
2023-04-08T03:55:31.312Z,11.30
2023-04-08T03:57:59.401Z,11.90
2023-04-08T04:00:27.566Z,12.40
2023-04-08T04:02:56.512Z,11.70
2023-04-08T04:05:26.368Z,12.10
2023-04-08T04:07:54.578Z,10.90
2023-04-08T04:10:22.681Z,11.30
2023-04-08T04:12:50.989Z,11.00
2023-04-08T04:15:19.583Z,12.10
2023-04-08T04:17:50.959Z,12.60
2023-04-08T04:20:19.303Z,12.10
2023-04-08T04:22:47.492Z,12.60
2023-04-08T04:25:15.702Z,12.60
2023-04-08T04:27:43.759Z,12.80
2023-04-08T04:30:15.572Z,13.30
2023-04-08T04:32:44.238Z,12.80
2023-04-08T04:35:13.184Z,12.60
2023-04-08T04:37:41.852Z,12.60
2023-04-08T04:40:10.124Z,13.00
2023-04-08T04:42:38.195Z,13.10
2023-04-08T04:45:06.812Z,12.20
2023-04-08T04:47:34.986Z,11.50
2023-04-08T04:50:03.081Z,12.30
2023-04-08T04:52:31.460Z,12.40
2023-04-08T04:54:59.583Z,12.50
2023-04-08T04:57:27.637Z,11.50
2023-04-08T04:59:55.702Z,11.80
2023-04-08T05:02:23.829Z,11.30
2023-04-08T05:04:53.836Z,11.40
2023-04-08T05:07:22.669Z,12.70
2023-04-08T05:09:50.980Z,11.60
2023-04-08T05:12:20.792Z,12.10
2023-04-08T05:14:48.909Z,12.00
2023-04-08T05:17:17.347Z,12.00
2023-04-08T05:19:45.626Z,12.70
2023-04-08T05:22:13.711Z,11.80
2023-04-08T05:24:42.023Z,11.60
2023-04-08T05:27:10.190Z,11.00
2023-04-08T05:29:38.303Z,10.50
2023-04-08T05:32:06.455Z,10.90
2023-04-08T05:34:34.650Z,10.60
2023-04-08T05:37:02.686Z,10.70
2023-04-08T05:39:31.079Z,10.70
2023-04-08T05:41:59.235Z,10.20
2023-04-08T05:44:27.315Z,9.40
2023-04-08T05:46:56.106Z,9.30
2023-04-08T05:49:24.267Z,10.00
2023-04-08T05:51:52.349Z,10.40
2023-04-08T05:54:20.527Z,9.80
2023-04-08T05:56:49.042Z,9.00
2023-04-08T05:59:17.180Z,9.40
2023-04-08T06:01:45.585Z,9.60
2023-04-08T06:04:13.983Z,9.60
2023-04-08T06:06:42.226Z,8.50
2023-04-08T06:09:10.371Z,9.10
2023-04-08T06:11:38.484Z,8.40
2023-04-08T06:14:06.643Z,9.10
2023-04-08T06:16:34.845Z,10.00
2023-04-08T06:19:03.076Z,8.70
2023-04-08T06:21:31.211Z,9.40
2023-04-08T06:23:59.237Z,8.90
2023-04-08T06:26:28.057Z,8.40
2023-04-08T06:28:56.488Z,9.40
2023-04-08T06:31:24.896Z,9.20
2023-04-08T06:33:53.018Z,9.60
2023-04-08T06:36:21.268Z,10.00
2023-04-08T06:38:49.695Z,9.20
2023-04-08T06:41:18.017Z,8.50
2023-04-08T06:43:46.262Z,9.60
2023-04-08T06:46:14.300Z,9.20
2023-04-08T06:48:42.429Z,10.10
2023-04-08T06:51:10.722Z,9.40
2023-04-08T06:53:38.946Z,9.90
2023-04-08T06:56:07.224Z,10.70
2023-04-08T06:58:35.518Z,10.60
2023-04-08T07:01:05.193Z,8.80
2023-04-08T07:03:33.337Z,9.70
2023-04-08T07:06:01.420Z,10.10
2023-04-08T07:08:29.599Z,11.40
2023-04-08T07:10:57.688Z,10.40
2023-04-08T07:13:25.788Z,11.70
2023-04-08T07:15:53.853Z,11.40
2023-04-08T07:18:21.985Z,11.00
2023-04-08T07:20:58.104Z,11.40
2023-04-08T07:23:26.397Z,10.70
2023-04-08T07:25:54.557Z,10.40
2023-04-08T07:28:22.679Z,10.50
2023-04-08T07:30:50.869Z,9.30
2023-04-08T07:33:19.942Z,10.30
2023-04-08T07:35:48.676Z,10.10
2023-04-08T07:38:16.817Z,9.90
2023-04-08T07:40:44.899Z,10.10
2023-04-08T07:43:12.941Z,9.00
2023-04-08T07:45:41.372Z,9.10
2023-04-08T07:48:09.480Z,8.80
2023-04-08T07:51:08.960Z,8.50
2023-04-08T07:53:26.860Z,8.20
2023-04-08T07:55:54.993Z,8.80
2023-04-08T07:58:25.144Z,9.80
2023-04-08T08:00:53.983Z,9.20
2023-04-08T08:03:28.627Z,8.30
2023-04-08T08:05:57.405Z,9.10
2023-04-08T08:08:28.308Z,8.70
2023-04-08T08:13:24.351Z,8.60
2023-04-08T08:15:53.940Z,7.70
2023-04-08T08:18:22.097Z,6.50
2023-04-08T08:20:50.217Z,5.90
2023-04-08T08:23:18.386Z,7.00
2023-04-08T08:25:46.727Z,7.80
2023-04-08T08:28:14.868Z,6.30
2023-04-08T08:30:43.083Z,5.90
2023-04-08T08:33:11.374Z,7.00
2023-04-08T08:35:39.533Z,6.10
2023-04-08T08:38:07.836Z,5.30
2023-04-08T08:40:36.305Z,5.80
2023-04-08T08:43:04.500Z,5.50
2023-04-08T08:45:33.611Z,5.90
2023-04-08T08:48:01.891Z,6.20
2023-04-08T08:50:30.122Z,6.20
2023-04-08T08:52:58.231Z,6.50
2023-04-08T08:55:50.260Z,6.20
2023-04-08T08:58:14.896Z,5.40
2023-04-08T09:00:45.185Z,5.50
2023-04-08T09:03:29.982Z,5.10
2023-04-08T09:06:00.918Z,5.00
2023-04-08T09:08:38.081Z,5.30
2023-04-08T09:11:19.727Z,5.90
2023-04-08T09:13:48.413Z,5.60
2023-04-08T09:16:18.532Z,5.70
2023-04-08T09:18:50.488Z,5.90
2023-04-08T09:21:23.811Z,5.60
2023-04-08T09:23:53.285Z,5.80
2023-04-08T09:26:24.452Z,6.00
2023-04-08T09:29:24.176Z,5.30
2023-04-08T09:31:56.511Z,4.60
2023-04-08T09:36:58.273Z,4.90
2023-04-08T09:39:26.475Z,5.00
2023-04-08T09:41:59.217Z,4.80
2023-04-08T09:44:29.511Z,5.20
2023-04-08T09:47:20.293Z,4.90
2023-04-08T09:49:55.018Z,4.70
2023-04-08T09:52:34.273Z,4.30
2023-04-08T09:55:04.643Z,4.40
2023-04-08T09:58:16.883Z,4.60
2023-04-08T10:00:53.263Z,4.00
2023-04-08T10:03:32.085Z,4.70
2023-04-08T10:06:03.384Z,4.30
2023-04-08T10:08:33.194Z,4.10
2023-04-08T10:11:01.503Z,4.10
2023-04-08T10:13:29.941Z,4.60
2023-04-08T10:16:19.414Z,4.10
2023-04-08T10:18:49.940Z,4.80
2023-04-08T10:21:38.232Z,4.50
2023-04-08T10:24:11.164Z,4.00
2023-04-08T10:26:40.720Z,4.20
2023-04-08T10:29:18.107Z,4.60
2023-04-08T10:31:53.083Z,4.00
2023-04-08T10:34:24.814Z,4.30
2023-04-08T10:36:55.420Z,4.40
2023-04-08T10:39:25.236Z,3.90
2023-04-08T10:41:53.486Z,4.80
2023-04-08T10:44:26.925Z,4.70
2023-04-08T10:46:55.797Z,4.70
2023-04-08T10:49:33.383Z,4.80
2023-04-08T10:52:01.697Z,4.80
2023-04-08T10:54:29.834Z,4.60
2023-04-08T10:56:57.928Z,4.20
2023-04-08T10:59:33.233Z,5.10
2023-04-08T11:02:02.693Z,4.40
2023-04-08T11:04:31.309Z,4.90
2023-04-08T11:06:59.761Z,4.90
2023-04-08T11:09:27.878Z,4.70
2023-04-08T11:11:57.029Z,4.90
2023-04-08T11:14:27.019Z,5.20
2023-04-08T11:16:55.480Z,5.30
2023-04-08T11:19:24.861Z,4.70
2023-04-08T11:21:53.646Z,5.50
2023-04-08T11:24:22.508Z,5.10
2023-04-08T11:26:51.328Z,5.50
2023-04-08T11:29:19.766Z,5.00
2023-04-08T11:31:49.718Z,5.10
2023-04-08T11:34:25.223Z,5.40
2023-04-08T11:36:53.622Z,6.00
2023-04-08T11:39:25.012Z,6.00
2023-04-08T11:41:53.426Z,5.30
2023-04-08T11:44:31.179Z,4.70
2023-04-08T11:46:59.534Z,5.00
2023-04-08T11:49:27.968Z,5.10
2023-04-08T11:51:59.412Z,5.00
2023-04-08T11:54:32.516Z,5.80
2023-04-08T11:57:01.329Z,5.10
2023-04-08T11:59:29.914Z,4.10
2023-04-08T12:01:59.161Z,4.60
2023-04-08T12:04:27.576Z,4.80
2023-04-08T12:06:58.152Z,4.20
2023-04-08T12:11:56.959Z,3.90
2023-04-08T12:14:27.734Z,4.40
2023-04-08T12:16:56.681Z,4.30
2023-04-08T12:19:24.787Z,4.30
2023-04-08T12:21:52.883Z,3.70
2023-04-08T12:24:21.568Z,4.20
2023-04-08T12:26:49.750Z,4.30
2023-04-08T12:29:17.799Z,4.60
2023-04-08T12:31:46.086Z,4.40
2023-04-08T12:34:14.200Z,4.10
2023-04-08T12:36:42.998Z,3.90
2023-04-08T12:39:11.274Z,4.00
2023-04-08T12:41:39.309Z,3.90
2023-04-08T12:44:07.954Z,4.10
2023-04-08T12:46:36.287Z,4.40
2023-04-08T12:49:05.503Z,4.50
2023-04-08T12:51:34.375Z,4.10
2023-04-08T12:54:04.259Z,4.40
2023-04-08T12:56:32.678Z,4.50
2023-04-08T12:59:01.548Z,4.40
2023-04-08T13:01:31.054Z,4.30
2023-04-08T13:03:59.493Z,4.80
2023-04-08T13:06:28.298Z,4.30
2023-04-08T13:08:56.549Z,4.10
2023-04-08T13:11:24.774Z,4.40
2023-04-08T13:13:53.134Z,4.10
2023-04-08T13:16:22.042Z,4.30
2023-04-08T13:18:50.356Z,4.20
2023-04-08T13:21:18.650Z,3.90
2023-04-08T13:23:47.081Z,3.80
2023-04-08T13:26:15.227Z,3.40
2023-04-08T13:28:56.073Z,3.90
2023-04-08T13:31:26.096Z,3.90
2023-04-08T13:33:57.619Z,3.80
2023-04-08T13:36:28.866Z,3.60
2023-04-08T13:38:57.504Z,3.90
2023-04-08T13:41:26.321Z,3.80
2023-04-08T13:43:54.442Z,3.80
2023-04-08T13:46:22.728Z,3.60
2023-04-08T13:48:51.191Z,4.00
2023-04-08T13:51:19.666Z,3.80
2023-04-08T13:53:47.747Z,3.90
2023-04-08T13:56:16.018Z,4.00
2023-04-08T13:58:46.158Z,3.70
2023-04-08T14:01:18.035Z,3.90
2023-04-08T14:03:46.292Z,3.70
2023-04-08T14:06:14.313Z,4.10
2023-04-08T14:08:42.985Z,3.70
2023-04-08T14:11:11.018Z,3.80
2023-04-08T14:13:39.179Z,4.00
2023-04-08T14:16:07.512Z,4.00
2023-04-08T14:18:36.230Z,4.20
2023-04-08T14:21:05.551Z,4.20
2023-04-08T14:23:33.669Z,4.30
2023-04-08T14:26:01.946Z,4.00
2023-04-08T14:28:30.010Z,3.80
2023-04-08T14:30:58.135Z,4.00
2023-04-08T14:33:27.386Z,4.10
2023-04-08T14:35:55.663Z,3.90
2023-04-08T14:38:23.780Z,4.30
2023-04-08T14:40:52.561Z,4.00
2023-04-08T14:43:21.280Z,4.60
2023-04-08T14:45:52.759Z,3.70
2023-04-08T14:48:20.837Z,4.10
2023-04-08T14:50:48.942Z,3.60
2023-04-08T14:53:17.992Z,4.20
2023-04-08T14:55:46.109Z,4.20
2023-04-08T14:58:14.211Z,4.20
2023-04-08T15:00:46.364Z,4.20
2023-04-08T15:03:17.131Z,4.40
2023-04-08T15:08:13.886Z,3.90
2023-04-08T15:10:42.003Z,3.90
2023-04-08T15:13:10.134Z,4.10
2023-04-08T15:15:38.307Z,4.10
2023-04-08T15:18:06.448Z,4.50
2023-04-08T15:20:34.507Z,3.90
2023-04-08T15:23:03.054Z,4.40
2023-04-08T15:25:31.165Z,4.50
2023-04-08T15:27:59.238Z,4.00
2023-04-08T15:30:27.880Z,4.40
2023-04-08T15:32:57.547Z,3.90
2023-04-08T15:35:27.372Z,4.10
2023-04-08T15:37:55.526Z,3.80
2023-04-08T15:40:23.637Z,4.70
2023-04-08T15:42:51.957Z,4.50
2023-04-08T15:45:20.321Z,4.60
2023-04-08T15:47:48.553Z,4.90
2023-04-08T15:50:17.693Z,4.50
2023-04-08T15:52:46.042Z,4.50
2023-04-08T15:55:14.292Z,4.60
2023-04-08T15:57:42.615Z,4.30
2023-04-08T16:00:11.681Z,4.30
2023-04-08T16:02:40.113Z,4.30
2023-04-08T16:05:09.327Z,4.60
2023-04-08T16:07:37.571Z,4.90
2023-04-08T16:10:06.654Z,4.40
2023-04-08T16:12:34.975Z,4.40
2023-04-08T16:15:03.170Z,4.80
2023-04-08T16:17:31.540Z,5.00
2023-04-08T16:20:00.115Z,4.40
2023-04-08T16:22:28.338Z,4.60
2023-04-08T16:24:56.509Z,4.70
2023-04-08T16:27:24.620Z,4.80
2023-04-08T16:29:53.229Z,4.90
2023-04-08T16:32:21.365Z,4.90
2023-04-08T16:34:49.522Z,5.20
2023-04-08T16:37:17.688Z,4.90
2023-04-08T16:39:46.385Z,4.50
2023-04-08T16:42:14.718Z,4.60
2023-04-08T16:44:42.839Z,5.10
2023-04-08T16:47:10.987Z,5.40
2023-04-08T16:49:39.040Z,5.20
2023-04-08T16:52:07.629Z,4.90
2023-04-08T16:54:35.747Z,5.20
2023-04-08T16:57:04.047Z,4.90
2023-04-08T16:59:32.224Z,5.30
2023-04-08T17:02:00.466Z,5.30
2023-04-08T17:04:28.543Z,5.30
2023-04-08T17:06:57.428Z,5.10
2023-04-08T17:09:26.273Z,4.90
2023-04-08T17:11:56.026Z,5.50
2023-04-08T17:14:24.272Z,4.80
2023-04-08T17:16:52.372Z,4.50
2023-04-08T17:19:20.598Z,4.70
2023-04-08T17:21:49.970Z,5.00
2023-04-08T17:24:18.508Z,5.90
2023-04-08T17:26:46.635Z,5.10
2023-04-08T17:29:14.818Z,5.30
2023-04-08T17:31:44.379Z,6.00
2023-04-08T17:34:12.490Z,6.30
2023-04-08T17:36:40.824Z,5.50
2023-04-08T17:39:08.875Z,5.50
2023-04-08T17:41:40.205Z,6.00
2023-04-08T17:44:09.224Z,7.00
2023-04-08T17:46:37.501Z,6.70
2023-04-08T17:49:05.840Z,7.00
2023-04-08T17:51:34.476Z,7.30
2023-04-08T17:54:02.686Z,7.50
2023-04-08T17:56:31.237Z,8.20
2023-04-08T17:58:59.405Z,8.00
2023-04-08T18:01:27.772Z,7.70
2023-04-08T18:03:56.658Z,8.00
2023-04-08T18:06:24.833Z,7.90
2023-04-08T18:08:52.908Z,9.60
2023-04-08T18:11:23.075Z,8.40
2023-04-08T18:13:51.589Z,9.10
2023-04-08T18:16:21.354Z,8.50
2023-04-08T18:18:49.809Z,7.90
2023-04-08T18:21:18.629Z,8.20
2023-04-08T18:23:50.054Z,8.70
2023-04-08T18:26:18.456Z,8.70
2023-04-08T18:28:46.673Z,8.70
2023-04-08T18:31:14.894Z,8.70
2023-04-08T18:33:43.153Z,9.20
2023-04-08T18:36:12.835Z,9.60
2023-04-08T18:38:41.286Z,8.70
2023-04-08T18:41:09.472Z,8.40
2023-04-08T18:43:37.590Z,8.90
2023-04-08T18:46:05.917Z,8.50
2023-04-08T18:48:34.034Z,9.00
2023-04-08T18:51:02.214Z,9.00
2023-04-08T18:53:30.865Z,9.00
2023-04-08T18:55:59.013Z,8.90
2023-04-08T18:58:30.230Z,8.40
2023-04-08T19:00:58.504Z,9.00
2023-04-08T19:03:28.424Z,8.30
2023-04-08T19:05:56.656Z,9.10
2023-04-08T19:08:24.729Z,7.40
2023-04-08T19:10:52.842Z,8.40
2023-04-08T19:13:23.209Z,9.40
2023-04-08T19:15:51.542Z,12.20
2023-04-08T19:18:19.691Z,10.30
2023-04-08T19:20:48.339Z,10.00
2023-04-08T19:23:16.618Z,9.10
2023-04-08T19:25:45.154Z,9.10
2023-04-08T19:28:16.452Z,9.00
2023-04-08T19:30:44.602Z,10.40
2023-04-08T19:33:12.710Z,10.00
2023-04-08T19:35:41.231Z,8.70
2023-04-08T19:38:09.356Z,9.10
2023-04-08T19:40:37.422Z,9.40
2023-04-08T19:43:05.579Z,9.40
2023-04-08T19:45:34.450Z,9.00
2023-04-08T19:48:02.630Z,8.40
2023-04-08T19:50:30.701Z,8.50
2023-04-08T19:52:58.805Z,9.40
2023-04-08T19:55:26.934Z,9.70
2023-04-08T19:57:55.781Z,9.90
2023-04-08T20:00:24.009Z,10.00
2023-04-08T20:02:52.286Z,10.10
2023-04-08T20:05:20.744Z,10.30
2023-04-08T20:07:48.940Z,10.40
2023-04-08T20:10:17.114Z,10.20
2023-04-08T20:12:45.238Z,9.60
2023-04-08T20:15:23.731Z,9.60
2023-04-08T20:17:53.584Z,9.50
2023-04-08T20:20:21.883Z,9.60
2023-04-08T20:22:50.362Z,11.20
2023-04-08T20:25:18.667Z,10.00
2023-04-08T20:27:46.856Z,10.60
2023-04-08T20:30:15.416Z,10.30
2023-04-08T20:32:44.924Z,10.50
2023-04-08T20:35:13.677Z,9.60
2023-04-08T20:37:42.074Z,10.10
2023-04-08T20:40:10.531Z,10.00
2023-04-08T20:42:38.828Z,8.90
2023-04-08T20:45:07.529Z,9.10
2023-04-08T20:47:35.655Z,10.10
2023-04-08T20:50:04.001Z,9.70
2023-04-08T20:52:32.196Z,9.10
2023-04-08T20:55:00.703Z,9.00
2023-04-08T20:57:28.906Z,9.70
2023-04-08T20:59:57.017Z,11.00
2023-04-08T21:02:25.442Z,9.10
2023-04-08T21:04:53.758Z,9.50
2023-04-08T21:07:21.870Z,9.70
2023-04-08T21:09:49.924Z,9.60
2023-04-08T21:12:18.254Z,9.00
2023-04-08T21:14:47.343Z,9.10
2023-04-08T21:17:15.524Z,8.40
2023-04-08T21:19:43.610Z,9.30
2023-04-08T21:22:11.733Z,9.90
2023-04-08T21:24:39.966Z,9.60
2023-04-08T21:27:08.092Z,9.90
2023-04-08T21:29:36.190Z,9.10
2023-04-08T21:32:04.764Z,9.00
2023-04-08T21:34:32.937Z,8.40
2023-04-08T21:37:01.113Z,9.70
2023-04-08T21:39:29.275Z,10.60
2023-04-08T21:41:57.662Z,9.70
2023-04-08T21:44:25.858Z,8.80
2023-04-08T21:46:54.900Z,9.30
2023-04-08T21:49:23.155Z,10.20
2023-04-08T21:51:51.337Z,11.80
2023-04-08T21:54:19.453Z,11.90
2023-04-08T21:56:47.940Z,13.40
2023-04-08T21:59:16.100Z,12.90
2023-04-08T22:01:44.293Z,13.20
2023-04-08T22:04:12.646Z,11.90
2023-04-08T22:06:41.182Z,12.70
2023-04-08T22:09:09.267Z,13.40
2023-04-08T22:11:38.852Z,14.40
2023-04-08T22:14:06.970Z,13.40
2023-04-08T22:16:35.072Z,13.00
2023-04-08T22:19:03.203Z,12.70
2023-04-08T22:21:31.726Z,12.40
2023-04-08T22:23:59.848Z,12.40
2023-04-08T22:26:28.151Z,12.20
2023-04-08T22:28:56.289Z,11.90
2023-04-08T22:31:24.446Z,13.30
2023-04-08T22:33:52.582Z,13.20
2023-04-08T22:36:20.714Z,12.20
2023-04-08T22:38:48.802Z,12.00
2023-04-08T22:41:21.014Z,11.70
2023-04-08T22:43:50.336Z,11.00
2023-04-08T22:46:18.735Z,11.70
2023-04-08T22:48:47.777Z,12.00
2023-04-08T22:51:15.978Z,10.50
2023-04-08T22:53:44.297Z,10.90
2023-04-08T22:56:12.571Z,11.30
2023-04-08T22:58:40.595Z,10.90
2023-04-08T23:01:22.518Z,10.60
2023-04-08T23:03:50.802Z,9.80
2023-04-08T23:06:18.917Z,9.90
2023-04-08T23:08:47.103Z,9.80
2023-04-08T23:11:15.489Z,9.70
2023-04-08T23:13:43.673Z,10.80
2023-04-08T23:16:11.873Z,9.50
2023-04-08T23:18:40.088Z,10.20
2023-04-08T23:21:08.169Z,10.40
2023-04-08T23:23:36.375Z,9.30
2023-04-08T23:26:04.527Z,10.80
2023-04-08T23:28:32.717Z,9.90
2023-04-08T23:31:04.172Z,10.50
2023-04-08T23:33:32.360Z,9.90
2023-04-08T23:36:00.561Z,10.40
2023-04-08T23:38:28.664Z,11.80
2023-04-08T23:40:56.778Z,11.20
2023-04-08T23:43:24.894Z,10.60
2023-04-08T23:45:52.916Z,10.70
2023-04-08T23:48:21.089Z,11.70
2023-04-08T23:50:55.724Z,12.60
2023-04-08T23:53:23.801Z,12.50
2023-04-08T23:55:51.883Z,11.70
2023-04-08T23:58:19.961Z,12.10
